createdAt,value
2018-07-23T00:00:28.782Z,99.99
2018-07-23T00:01:28.516Z,99.99
2018-07-23T00:02:28.497Z,99.99
2018-07-23T00:03:28.750Z,99.99
2018-07-23T00:04:28.735Z,99.99
2018-07-23T00:05:28.733Z,99.99
2018-07-23T00:06:28.720Z,99.99
2018-07-23T00:07:28.713Z,99.99
2018-07-23T00:08:28.904Z,99.99
2018-07-23T00:09:28.695Z,99.99
2018-07-23T00:10:28.687Z,99.99
2018-07-23T00:11:28.669Z,99.35
2018-07-23T00:12:28.659Z,99.44
2018-07-23T00:13:28.661Z,98.96
2018-07-23T00:14:28.377Z,98.39
2018-07-23T00:15:28.644Z,97.62
2018-07-23T00:16:28.619Z,98
2018-07-23T00:17:28.345Z,97.91
2018-07-23T00:18:28.599Z,97.04
2018-07-23T00:19:28.589Z,97.04
2018-07-23T00:20:28.589Z,95.89
2018-07-23T00:21:28.583Z,96.56
2018-07-23T00:22:28.573Z,95.98
2018-07-23T00:23:28.552Z,96.08
2018-07-23T00:24:28.543Z,95.4
2018-07-23T00:25:28.533Z,95.45
2018-07-23T00:26:28.531Z,95.07
2018-07-23T00:27:28.516Z,94.88
2018-07-23T00:28:28.500Z,94.21
2018-07-23T00:29:28.244Z,94.21
2018-07-23T00:30:28.218Z,93.91
2018-07-23T00:31:28.473Z,93.53
2018-07-23T00:32:28.196Z,93.24
2018-07-23T00:33:28.456Z,92.67
2018-07-23T00:34:28.441Z,92.09
2018-07-23T00:35:28.430Z,91.71
2018-07-23T00:36:28.421Z,90.84
2018-07-23T00:37:28.152Z,91.03
2018-07-23T00:38:28.143Z,90.84
2018-07-23T00:39:28.127Z,90.36
2018-07-23T00:40:28.380Z,90.45
2018-07-23T00:41:28.369Z,89.5
2018-07-23T00:42:28.360Z,88.63
2018-07-23T00:43:28.351Z,88.06
2018-07-23T00:44:28.346Z,87.57
2018-07-23T00:45:28.067Z,86.9
2018-07-23T00:46:28.319Z,86.8
2018-07-23T00:47:28.313Z,86.28
2018-07-23T00:48:28.304Z,85.94
2018-07-23T00:49:28.288Z,85.36
2018-07-23T00:50:28.290Z,85.41
2018-07-23T00:51:28.274Z,84.4
2018-07-23T00:52:28.000Z,83.59
2018-07-23T00:53:28.250Z,83.34
2018-07-23T00:54:27.976Z,82.82
2018-07-23T00:55:28.231Z,82.82
2018-07-23T00:56:28.212Z,82.63
2018-07-23T00:57:27.945Z,82.63
2018-07-23T00:58:28.199Z,83.34
2018-07-23T00:59:27.923Z,82.82
2018-07-23T01:00:28.175Z,82.34
2018-07-23T01:01:27.907Z,81.86
2018-07-23T01:02:28.156Z,81.19
2018-07-23T01:03:27.880Z,80.71
2018-07-23T01:04:28.135Z,80.8
2018-07-23T01:05:28.127Z,80.9
2018-07-23T01:06:28.117Z,80.04
2018-07-23T01:07:27.839Z,79.65
2018-07-23T01:08:27.830Z,79.36
2018-07-23T01:09:28.078Z,78.78
2018-07-23T01:10:27.810Z,78.3
2018-07-23T01:11:28.061Z,77.34
2018-07-23T01:12:27.788Z,77.15
2018-07-23T01:13:28.042Z,77.34
2018-07-23T01:14:27.770Z,77.06
2018-07-23T01:15:27.759Z,77.25
2018-07-23T01:16:27.752Z,77.25
2018-07-23T01:17:27.998Z,77.34
2018-07-23T01:18:27.989Z,77.15
2018-07-23T01:19:27.712Z,76.48
2018-07-23T01:20:27.972Z,76.39
2018-07-23T01:21:27.955Z,75.9
2018-07-23T01:22:27.949Z,76.29
2018-07-23T01:23:27.934Z,75.9
2018-07-23T01:24:27.655Z,75
2018-07-23T01:25:27.920Z,74.33
2018-07-23T01:26:27.642Z,74.23
2018-07-23T01:27:27.887Z,73.37
2018-07-23T01:28:27.878Z,73.46
2018-07-23T01:29:27.609Z,73.21
2018-07-23T01:30:27.855Z,73.21
2018-07-23T01:31:27.846Z,72.92
2018-07-23T01:32:27.575Z,72.83
2018-07-23T01:33:27.565Z,73.11
2018-07-23T01:34:27.551Z,72.25
2018-07-23T01:35:27.543Z,71.64
2018-07-23T01:36:27.795Z,71.73
2018-07-23T01:37:27.788Z,71.73
2018-07-23T01:38:27.775Z,71.64
2018-07-23T01:39:27.501Z,71.45
2018-07-23T01:40:27.489Z,71.35
2018-07-23T01:41:27.479Z,70.87
2018-07-23T01:42:27.737Z,71.35
2018-07-23T01:43:27.727Z,71.45
2018-07-23T01:44:27.712Z,70.58
2018-07-23T01:45:27.695Z,70.68
2018-07-23T01:46:27.702Z,70.2
2018-07-23T01:47:27.415Z,69.53
2018-07-23T01:48:27.665Z,69.81
2018-07-23T01:49:27.393Z,69.24
2018-07-23T01:50:27.646Z,69.14
2018-07-23T01:51:27.635Z,68.76
2018-07-23T01:52:27.359Z,68.18
2018-07-23T01:53:27.613Z,68.76
2018-07-23T01:54:27.334Z,67.32
2018-07-23T01:55:27.594Z,67.03
2018-07-23T01:56:27.579Z,67.22
2018-07-23T01:57:27.566Z,66.84
2018-07-23T01:58:27.293Z,66.55
2018-07-23T01:59:27.284Z,65.49
2018-07-23T02:00:27.540Z,64.82
2018-07-23T02:01:27.532Z,64.92
2018-07-23T02:02:27.250Z,65.01
2018-07-23T02:03:27.243Z,64.92
2018-07-23T02:04:27.492Z,64.72
2018-07-23T02:05:27.492Z,64.53
2018-07-23T02:06:27.476Z,64.53
2018-07-23T02:07:27.201Z,63.67
2018-07-23T02:08:27.395Z,63.57
2018-07-23T02:09:27.451Z,63.19
2018-07-23T02:10:27.433Z,63.19
2018-07-23T02:11:27.421Z,63.48
2018-07-23T02:12:27.410Z,63.76
2018-07-23T02:13:27.144Z,65.11
2018-07-23T02:14:27.401Z,65.4
2018-07-23T02:15:27.377Z,64.92
2018-07-23T02:16:27.101Z,64.63
2018-07-23T02:17:27.090Z,65.69
2018-07-23T02:18:27.346Z,65.88
2018-07-23T02:19:27.335Z,66.36
2018-07-23T02:20:27.333Z,66.26
2018-07-23T02:21:27.319Z,66.49
2018-07-23T02:22:27.303Z,65.69
2018-07-23T02:23:27.031Z,65.49
2018-07-23T02:24:27.281Z,66.87
2018-07-23T02:25:27.280Z,67.54
2018-07-23T02:26:27.257Z,67.35
2018-07-23T02:27:27.246Z,67.35
2018-07-23T02:28:27.239Z,66.77
2018-07-23T02:29:27.225Z,66.1
2018-07-23T02:30:27.222Z,66.49
2018-07-23T02:31:27.209Z,66.3
2018-07-23T02:32:27.197Z,66.49
2018-07-23T02:33:27.193Z,66.2
2018-07-23T02:34:26.912Z,65.62
2018-07-23T02:35:27.168Z,65.62
2018-07-23T02:36:26.891Z,66.2
2018-07-23T02:37:27.148Z,67.16
2018-07-23T02:38:27.132Z,67.54
2018-07-23T02:39:27.130Z,68.02
2018-07-23T02:40:26.851Z,67.93
2018-07-23T02:41:27.103Z,68.31
2018-07-23T02:42:27.100Z,68.12
2018-07-23T02:43:26.816Z,67.25
2018-07-23T02:44:26.812Z,67.64
2018-07-23T02:45:26.805Z,67.64
2018-07-23T02:46:27.059Z,67.07
2018-07-23T02:47:27.043Z,66.77
2018-07-23T02:48:27.026Z,67.54
2018-07-23T02:49:26.752Z,67.35
2018-07-23T02:50:27.033Z,67.07
2018-07-23T02:51:26.994Z,66.97
2018-07-23T02:52:26.986Z,67.35
2018-07-23T02:53:26.981Z,67.16
2018-07-23T02:54:26.704Z,66.97
2018-07-23T02:55:26.689Z,67.16
2018-07-23T02:56:26.678Z,66.49
2018-07-23T02:57:26.668Z,66.77
2018-07-23T02:58:26.921Z,66.3
2018-07-23T02:59:26.968Z,67.07
2018-07-23T03:00:26.903Z,66.58
2018-07-23T03:01:26.636Z,66.3
2018-07-23T03:02:26.620Z,66.39
2018-07-23T03:03:26.877Z,66.97
2018-07-23T03:04:26.872Z,66.97
2018-07-23T03:05:26.585Z,66.77
2018-07-23T03:06:26.839Z,67.45
2018-07-23T03:07:26.838Z,65.91
2018-07-23T03:08:26.832Z,66.49
2018-07-23T03:09:26.805Z,66.49
2018-07-23T03:10:26.533Z,65.72
2018-07-23T03:11:26.527Z,65.33
2018-07-23T03:12:26.773Z,66.1
2018-07-23T03:13:26.770Z,65.53
2018-07-23T03:14:26.757Z,65.81
2018-07-23T03:15:26.749Z,66.49
2018-07-23T03:16:26.734Z,65.91
2018-07-23T03:17:26.723Z,65.81
2018-07-23T03:18:26.719Z,65.91
2018-07-23T03:19:26.706Z,66.1
2018-07-23T03:20:26.692Z,65.81
2018-07-23T03:21:26.415Z,65.33
2018-07-23T03:22:26.669Z,65.23
2018-07-23T03:23:26.660Z,65.62
2018-07-23T03:24:26.651Z,65.23
2018-07-23T03:25:26.639Z,64.85
2018-07-23T03:26:26.629Z,65.53
2018-07-23T03:27:26.614Z,64.85
2018-07-23T03:28:26.604Z,64.66
2018-07-23T03:29:26.597Z,64.56
2018-07-23T03:30:26.325Z,63.6
2018-07-23T03:31:26.576Z,63.51
2018-07-23T03:32:26.566Z,63.22
2018-07-23T03:33:26.556Z,63.12
2018-07-23T03:34:26.543Z,63.32
2018-07-23T03:35:26.528Z,63.51
2018-07-23T03:36:26.522Z,62.64
2018-07-23T03:37:26.517Z,62.64
2018-07-23T03:38:26.235Z,63.6
2018-07-23T03:39:26.487Z,63.02
2018-07-23T03:40:26.221Z,63.6
2018-07-23T03:41:26.479Z,63.79
2018-07-23T03:42:26.459Z,63.12
2018-07-23T03:43:26.461Z,62.84
2018-07-23T03:44:26.173Z,62.64
2018-07-23T03:45:26.166Z,62.74
2018-07-23T03:46:26.152Z,62.35
2018-07-23T03:47:26.144Z,62.52
2018-07-23T03:48:26.395Z,62.04
2018-07-23T03:49:26.128Z,62.23
2018-07-23T03:50:26.373Z,62.16
2018-07-23T03:51:26.104Z,61.94
2018-07-23T03:52:26.405Z,61.36
2018-07-23T03:53:26.337Z,60.98
2018-07-23T03:54:26.328Z,60.4
2018-07-23T03:55:26.320Z,60.78
2018-07-23T03:56:26.311Z,60.21
2018-07-23T03:57:26.038Z,60.78
2018-07-23T03:58:26.022Z,60.6
2018-07-23T03:59:26.284Z,59.92
2018-07-23T04:00:26.007Z,59.92
2018-07-23T04:01:26.254Z,59.92
2018-07-23T04:02:25.982Z,59.73
2018-07-23T04:03:26.282Z,58.96
2018-07-23T04:04:26.223Z,58.96
2018-07-23T04:05:25.951Z,59.83
2018-07-23T04:06:25.941Z,59.06
2018-07-23T04:07:25.928Z,58.96
2018-07-23T04:08:26.123Z,59.16
2018-07-23T04:09:26.170Z,59.25
2018-07-23T04:10:26.168Z,58.58
2018-07-23T04:11:26.147Z,59.06
2018-07-23T04:12:26.146Z,58.58
2018-07-23T04:13:25.864Z,58.77
2018-07-23T04:14:26.112Z,58.74
2018-07-23T04:15:26.102Z,58.74
2018-07-23T04:16:26.091Z,58.29
2018-07-23T04:17:26.172Z,58.26
2018-07-23T04:18:26.072Z,58.17
2018-07-23T04:19:26.060Z,57.52
2018-07-23T04:20:25.788Z,56.82
2018-07-23T04:21:25.772Z,56.82
2018-07-23T04:22:26.030Z,56.92
2018-07-23T04:23:25.755Z,56.34
2018-07-23T04:24:26.010Z,56.15
2018-07-23T04:25:25.732Z,55.86
2018-07-23T04:26:25.987Z,55.96
2018-07-23T04:27:25.974Z,56.24
2018-07-23T04:28:25.693Z,56.44
2018-07-23T04:29:25.684Z,55.57
2018-07-23T04:30:25.934Z,55.77
2018-07-23T04:31:25.922Z,55.86
2018-07-23T04:32:25.654Z,55.67
2018-07-23T04:33:25.638Z,55.47
2018-07-23T04:34:25.894Z,55.19
2018-07-23T04:35:25.882Z,55.57
2018-07-23T04:36:25.873Z,55.19
2018-07-23T04:37:25.860Z,55.38
2018-07-23T04:38:25.852Z,55.57
2018-07-23T04:39:25.841Z,55.1
2018-07-23T04:40:25.827Z,55.57
2018-07-23T04:41:25.819Z,54.71
2018-07-23T04:42:25.881Z,55.57
2018-07-23T04:43:25.831Z,55.86
2018-07-23T04:44:25.782Z,55.96
2018-07-23T04:45:25.778Z,55.47
2018-07-23T04:46:25.506Z,55.57
2018-07-23T04:47:25.750Z,55.19
2018-07-23T04:48:25.477Z,55.1
2018-07-23T04:49:25.546Z,54.61
2018-07-23T04:50:25.723Z,55.1
2018-07-23T04:51:25.712Z,55.67
2018-07-23T04:52:25.695Z,55.38
2018-07-23T04:53:25.427Z,55.77
2018-07-23T04:54:25.684Z,56.15
2018-07-23T04:55:25.661Z,56.24
2018-07-23T04:56:25.652Z,56.37
2018-07-23T04:57:25.380Z,56.66
2018-07-23T04:58:25.625Z,56.63
2018-07-23T04:59:25.615Z,56.46
2018-07-23T05:00:25.609Z,56.66
2018-07-23T05:01:25.598Z,56.37
2018-07-23T05:02:25.592Z,56.76
2018-07-23T05:03:25.593Z,57.04
2018-07-23T05:04:25.563Z,56.76
2018-07-23T05:05:25.293Z,57.33
2018-07-23T05:06:25.542Z,56.95
2018-07-23T05:07:25.265Z,56.85
2018-07-23T05:08:25.514Z,56.95
2018-07-23T05:09:25.512Z,56.85
2018-07-23T05:10:25.265Z,56.95
2018-07-23T05:11:25.237Z,56.76
2018-07-23T05:12:25.211Z,57.33
2018-07-23T05:13:25.460Z,57.62
2018-07-23T05:14:25.457Z,58.58
2018-07-23T05:15:25.451Z,58.29
2018-07-23T05:16:25.434Z,58.77
2018-07-23T05:17:25.156Z,58.96
2018-07-23T05:18:25.409Z,58.67
2018-07-23T05:19:25.419Z,58.48
2018-07-23T05:20:25.385Z,58.58
2018-07-23T05:21:25.377Z,57.81
2018-07-23T05:22:25.369Z,58.77
2018-07-23T05:23:25.357Z,58.96
2018-07-23T05:24:25.083Z,58.48
2018-07-23T05:25:25.069Z,58.7
2018-07-23T05:26:25.060Z,58.42
2018-07-23T05:27:25.050Z,58.61
2018-07-23T05:28:25.036Z,57.75
2018-07-23T05:29:25.029Z,57.93
2018-07-23T05:30:25.279Z,57.36
2018-07-23T05:31:25.266Z,57.26
2018-07-23T05:32:25.253Z,57.17
2018-07-23T05:33:24.981Z,56.78
2018-07-23T05:34:25.235Z,58.03
2018-07-23T05:35:25.224Z,57.84
2018-07-23T05:36:25.210Z,57.07
2018-07-23T05:37:25.207Z,58.03
2018-07-23T05:38:25.257Z,57.84
2018-07-23T05:39:24.917Z,57.84
2018-07-23T05:40:25.173Z,57.84
2018-07-23T05:41:24.894Z,58.32
2018-07-23T05:42:24.885Z,58.22
2018-07-23T05:43:25.138Z,58.89
2018-07-23T05:44:25.136Z,59.19
2018-07-23T05:45:24.852Z,60.34
2018-07-23T05:46:25.102Z,60.53
2018-07-23T05:47:25.099Z,60.53
2018-07-23T05:48:24.823Z,60.08
2018-07-23T05:49:25.075Z,59.99
2018-07-23T05:50:25.062Z,59.47
2018-07-23T05:51:25.054Z,59.02
2018-07-23T05:52:24.776Z,60.46
2018-07-23T05:53:25.029Z,60.56
2018-07-23T05:54:24.757Z,60.46
2018-07-23T05:55:25.007Z,59.89
2018-07-23T05:56:24.734Z,59.69
2018-07-23T05:57:24.996Z,59.6
2018-07-23T05:58:24.714Z,59.31
2018-07-23T05:59:24.983Z,61.71
2018-07-23T06:00:24.958Z,61.91
2018-07-23T06:01:24.686Z,62.77
2018-07-23T06:02:24.932Z,62.48
2018-07-23T06:03:24.661Z,62.38
2018-07-23T06:04:24.914Z,63.25
2018-07-23T06:05:24.907Z,63.45
2018-07-23T06:06:24.670Z,62.68
2018-07-23T06:07:24.880Z,61.81
2018-07-23T06:08:25.071Z,62.8
2018-07-23T06:09:24.596Z,63.35
2018-07-23T06:10:24.856Z,62.71
2018-07-23T06:11:24.848Z,62.51
2018-07-23T06:12:24.829Z,62.61
2018-07-23T06:13:24.874Z,62.71
2018-07-23T06:14:24.805Z,62.32
2018-07-23T06:15:24.799Z,64.82
2018-07-23T06:16:24.789Z,64.43
2018-07-23T06:17:24.801Z,63.67
2018-07-23T06:18:24.768Z,65.01
2018-07-23T06:19:24.507Z,66.27
2018-07-23T06:20:24.485Z,66.55
2018-07-23T06:21:24.476Z,66.65
2018-07-23T06:22:24.468Z,67.13
2018-07-23T06:23:24.449Z,66.36
2018-07-23T06:24:24.445Z,66.94
2018-07-23T06:25:24.439Z,66.27
2018-07-23T06:26:24.699Z,66.3
2018-07-23T06:27:24.410Z,66.07
2018-07-23T06:28:24.668Z,66.49
2018-07-23T06:29:24.655Z,66.01
2018-07-23T06:30:24.425Z,65.72
2018-07-23T06:31:24.664Z,66.2
2018-07-23T06:32:24.719Z,66.39
2018-07-23T06:33:24.349Z,65.81
2018-07-23T06:34:24.623Z,66.97
2018-07-23T06:35:24.592Z,66.68
2018-07-23T06:36:24.582Z,67.45
2018-07-23T06:37:24.317Z,66.58
2018-07-23T06:38:24.562Z,67.26
2018-07-23T06:39:24.290Z,69.18
2018-07-23T06:40:24.281Z,70.43
2018-07-23T06:41:24.609Z,69.76
2018-07-23T06:42:24.520Z,70.15
2018-07-23T06:43:24.676Z,69.57
2018-07-23T06:44:24.245Z,70.15
2018-07-23T06:45:24.495Z,72.17
2018-07-23T06:46:24.224Z,71.14
2018-07-23T06:47:24.472Z,71.97
2018-07-23T06:48:24.463Z,72.97
2018-07-23T06:49:24.195Z,73.46
2018-07-23T06:50:24.213Z,72.49
2018-07-23T06:51:24.443Z,74.99
2018-07-23T06:52:24.163Z,75.96
2018-07-23T06:53:24.155Z,74.99
2018-07-23T06:54:24.408Z,77.88
2018-07-23T06:55:24.407Z,76.44
2018-07-23T06:56:24.120Z,75.13
2018-07-23T06:57:24.498Z,76.86
2018-07-23T06:58:24.102Z,77.4
2018-07-23T06:59:24.350Z,78.02
2018-07-23T07:00:24.348Z,76.38
2018-07-23T07:01:24.332Z,80.14
2018-07-23T07:02:24.351Z,82.64
2018-07-23T07:03:24.619Z,85.05
2018-07-23T07:04:24.317Z,82.93
2018-07-23T07:05:24.298Z,84.56
2018-07-23T07:06:24.080Z,86.98
2018-07-23T07:07:24.278Z,87.74
2018-07-23T07:08:24.277Z,85.53
2018-07-23T07:09:24.030Z,87.55
2018-07-23T07:10:23.981Z,89
2018-07-23T07:11:24.244Z,88.23
2018-07-23T07:12:24.226Z,88.37
2018-07-23T07:13:24.010Z,91.55
2018-07-23T07:14:24.230Z,90.48
2018-07-23T07:15:23.938Z,89.62
2018-07-23T07:16:24.187Z,90.1
2018-07-23T07:17:23.919Z,92.22
2018-07-23T07:18:23.905Z,93.57
2018-07-23T07:19:24.160Z,94.34
2018-07-23T07:20:24.158Z,98.39
2018-07-23T07:21:24.145Z,94.92
2018-07-23T07:22:23.873Z,99.99
2018-07-23T07:23:24.123Z,99.99
2018-07-23T07:24:24.115Z,99.99
2018-07-23T07:25:24.163Z,99.45
2018-07-23T07:26:23.830Z,99.26
2018-07-23T07:27:24.093Z,99.99
2018-07-23T07:28:24.076Z,99.99
2018-07-23T07:29:24.069Z,99.99
2018-07-23T07:30:23.800Z,99.99
2018-07-23T07:31:23.790Z,99.99
2018-07-23T07:32:24.050Z,99.99
2018-07-23T07:33:24.035Z,99.99
2018-07-23T07:34:23.756Z,99.99
2018-07-23T07:35:24.017Z,99.99
2018-07-23T07:36:23.741Z,99.99
2018-07-23T07:37:23.991Z,99.99
2018-07-23T07:38:24.140Z,99.99
2018-07-23T07:39:23.991Z,99.99
2018-07-23T07:40:23.977Z,99.99
2018-07-23T07:41:24.163Z,99.99
2018-07-23T07:42:23.962Z,99.99
2018-07-23T07:43:23.954Z,94.56
2018-07-23T07:44:23.679Z,85.96
2018-07-23T07:45:23.939Z,86.78
2018-07-23T07:46:24.005Z,84.1
2018-07-23T07:47:23.933Z,79.12
2018-07-23T07:48:23.925Z,76.63
2018-07-23T07:49:23.918Z,72.28
2018-07-23T07:50:23.920Z,71.15
2018-07-23T07:51:23.651Z,70.21
2018-07-23T07:52:23.644Z,70.92
2018-07-23T07:53:23.907Z,67.44
2018-07-23T07:54:23.904Z,67.19
2018-07-23T07:55:23.634Z,64.39
2018-07-23T07:56:23.633Z,61.45
2018-07-23T07:57:23.957Z,62.92
2018-07-23T07:58:23.625Z,61.25
2018-07-23T07:59:23.887Z,59.43
2018-07-23T08:00:23.627Z,61.19
2018-07-23T08:01:23.623Z,61.68
2018-07-23T08:02:23.622Z,61.8
2018-07-23T08:03:23.888Z,59.78
2018-07-23T08:04:23.615Z,60.66
2018-07-23T08:05:23.880Z,59.29
2018-07-23T08:06:23.622Z,59.12
2018-07-23T08:07:23.876Z,57.78
2018-07-23T08:08:24.079Z,59.16
2018-07-23T08:09:23.875Z,57.59
2018-07-23T08:10:23.606Z,57.62
2018-07-23T08:11:23.881Z,57.54
2018-07-23T08:12:23.620Z,56.96
2018-07-23T08:13:23.872Z,57.38
2018-07-23T08:14:23.874Z,57.18
2018-07-23T08:15:23.874Z,57.21
2018-07-23T08:16:23.920Z,55.93
2018-07-23T08:17:23.872Z,56.13
2018-07-23T08:18:23.870Z,53.9
2018-07-23T08:19:23.609Z,55.05
2018-07-23T08:20:23.614Z,54.07
2018-07-23T08:21:23.616Z,53.97
2018-07-23T08:22:23.878Z,54.33
2018-07-23T08:23:23.881Z,54.07
2018-07-23T08:24:23.881Z,53.97
2018-07-23T08:25:23.618Z,53.58
2018-07-23T08:26:23.618Z,54.27
2018-07-23T08:27:23.886Z,53.67
2018-07-23T08:28:23.628Z,53.31
2018-07-23T08:29:23.889Z,54.29
2018-07-23T08:30:23.891Z,54.78
2018-07-23T08:31:23.893Z,54.88
2018-07-23T08:32:24.196Z,53.63
2018-07-23T08:33:23.897Z,54.36
2018-07-23T08:34:23.906Z,56.07
2018-07-23T08:35:23.902Z,57.22
2018-07-23T08:36:23.904Z,57.06
2018-07-23T08:37:23.907Z,56.01
2018-07-23T08:38:23.906Z,55.02
2018-07-23T08:39:23.912Z,55.93
2018-07-23T08:40:23.916Z,54.68
2018-07-23T08:41:23.658Z,54.85
2018-07-23T08:42:23.910Z,57.81
2018-07-23T08:43:23.915Z,59.39
2018-07-23T08:44:23.651Z,61.29
2018-07-23T08:45:23.920Z,62.73
2018-07-23T08:46:23.919Z,64.45
2018-07-23T08:47:23.926Z,64.68
2018-07-23T08:48:23.920Z,65.07
2018-07-23T08:49:23.921Z,65.5
2018-07-23T08:50:23.918Z,67.9
2018-07-23T08:51:24.049Z,69.42
2018-07-23T08:52:23.649Z,70.65
2018-07-23T08:53:23.910Z,71.01
2018-07-23T08:54:23.912Z,73.99
2018-07-23T08:55:23.648Z,74.63
2018-07-23T08:56:23.903Z,76.18
2018-07-23T08:57:24.019Z,80.13
2018-07-23T08:58:23.907Z,77.37
2018-07-23T08:59:23.631Z,79.22
2018-07-23T09:00:23.630Z,82.57
2018-07-23T09:01:23.895Z,82.77
2018-07-23T09:02:24.061Z,82.57
2018-07-23T09:03:23.619Z,81.8
2018-07-23T09:04:23.879Z,80.29
2018-07-23T09:05:23.874Z,82.23
2018-07-23T09:06:23.872Z,82.13
2018-07-23T09:07:23.871Z,83.69
2018-07-23T09:08:24.039Z,82.71
2018-07-23T09:09:23.861Z,82.81
2018-07-23T09:10:23.859Z,86.21
2018-07-23T09:11:23.871Z,83.96
2018-07-23T09:12:23.591Z,80.94
2018-07-23T09:13:23.845Z,79.82
2018-07-23T09:14:23.582Z,78.33
2018-07-23T09:15:23.842Z,78.52
2018-07-23T09:16:23.573Z,83.04
2018-07-23T09:17:23.568Z,82.62
2018-07-23T09:18:23.828Z,83.69
2018-07-23T09:19:23.827Z,83.78
2018-07-23T09:20:23.825Z,84.03
2018-07-23T09:21:23.816Z,85.49
2018-07-23T09:22:23.547Z,85.19
2018-07-23T09:23:23.807Z,87.13
2018-07-23T09:24:23.549Z,86.85
2018-07-23T09:25:23.819Z,87.62
2018-07-23T09:26:23.548Z,90.05
2018-07-23T09:27:23.531Z,92.38
2018-07-23T09:28:23.791Z,87.23
2018-07-23T09:29:23.789Z,91.02
2018-07-23T09:30:23.786Z,90.53
2018-07-23T09:31:23.779Z,87.72
2018-07-23T09:32:23.512Z,87.91
2018-07-23T09:33:23.773Z,85.88
2018-07-23T09:34:23.502Z,87.52
2018-07-23T09:35:23.497Z,87.13
2018-07-23T09:36:23.769Z,86.16
2018-07-23T09:37:23.761Z,86.26
2018-07-23T09:38:23.754Z,83.94
2018-07-23T09:39:23.746Z,86.75
2018-07-23T09:40:23.747Z,90.73
2018-07-23T09:41:23.736Z,86.46
2018-07-23T09:42:23.471Z,89.85
2018-07-23T09:43:23.779Z,87.72
2018-07-23T09:44:23.724Z,86.16
2018-07-23T09:45:23.718Z,87.13
2018-07-23T09:46:23.451Z,88.69
2018-07-23T09:47:23.442Z,87.91
2018-07-23T09:48:23.441Z,86.46
2018-07-23T09:49:23.700Z,88.59
2018-07-23T09:50:23.434Z,88.4
2018-07-23T09:51:23.685Z,88.4
2018-07-23T09:52:23.695Z,90.73
2018-07-23T09:53:23.681Z,89.66
2018-07-23T09:54:23.411Z,89.37
2018-07-23T09:55:23.672Z,88.88
2018-07-23T09:56:23.404Z,94.42
2018-07-23T09:57:23.662Z,95
2018-07-23T09:58:23.395Z,91.21
2018-07-23T09:59:23.391Z,92.67
2018-07-23T10:00:23.647Z,90.82
2018-07-23T10:01:23.643Z,90.44
2018-07-23T10:02:23.636Z,88.93
2018-07-23T10:03:23.761Z,89.66
2018-07-23T10:04:23.635Z,87.66
2018-07-23T10:05:23.627Z,89.17
2018-07-23T10:06:23.621Z,91.6
2018-07-23T10:07:23.617Z,93.83
2018-07-23T10:08:23.757Z,87.52
2018-07-23T10:09:23.611Z,87.33
2018-07-23T10:10:23.596Z,85.24
2018-07-23T10:11:23.602Z,85.1
2018-07-23T10:12:23.330Z,86.16
2018-07-23T10:13:23.581Z,87.82
2018-07-23T10:14:23.318Z,88.49
2018-07-23T10:15:23.589Z,90.24
2018-07-23T10:16:23.573Z,88.01
2018-07-23T10:17:23.304Z,88.1
2018-07-23T10:18:23.562Z,87.04
2018-07-23T10:19:23.305Z,87.72
2018-07-23T10:20:23.550Z,86.36
2018-07-23T10:21:23.542Z,86.61
2018-07-23T10:22:23.278Z,84.61
2018-07-23T10:23:23.271Z,87.91
2018-07-23T10:24:23.265Z,89.66
2018-07-23T10:25:23.272Z,89.85
2018-07-23T10:26:23.268Z,87.13
2018-07-23T10:27:23.527Z,89.8
2018-07-23T10:28:23.511Z,86.89
2018-07-23T10:29:23.255Z,90
2018-07-23T10:30:23.240Z,87.32
2018-07-23T10:31:23.278Z,84.99
2018-07-23T10:32:23.492Z,84.93
2018-07-23T10:33:23.496Z,81.57
2018-07-23T10:34:23.494Z,79.86
2018-07-23T10:35:23.426Z,74.87
2018-07-23T10:36:23.491Z,72.41
2018-07-23T10:37:23.493Z,69.62
2018-07-23T10:38:23.489Z,68.97
2018-07-23T10:39:23.494Z,68.55
2018-07-23T10:40:23.223Z,66.93
2018-07-23T10:41:23.499Z,67.15
2018-07-23T10:42:23.493Z,64.71
2018-07-23T10:43:23.487Z,62.52
2018-07-23T10:44:23.495Z,61.57
2018-07-23T10:45:23.495Z,62.16
2018-07-23T10:46:23.232Z,61.99
2018-07-23T10:47:23.502Z,60.36
2018-07-23T10:48:23.503Z,60.39
2018-07-23T10:49:23.242Z,57.31
2018-07-23T10:50:23.243Z,59.05
2018-07-23T10:51:23.514Z,59.34
2018-07-23T10:52:23.251Z,59.95
2018-07-23T10:53:23.538Z,59.56
2018-07-23T10:54:23.261Z,58.22
2018-07-23T10:55:23.533Z,56.18
2018-07-23T10:56:23.529Z,56.18
2018-07-23T10:57:23.535Z,57.29
2018-07-23T10:58:23.543Z,55.91
2018-07-23T10:59:23.285Z,55.94
2018-07-23T11:00:23.548Z,55.85
2018-07-23T11:01:23.575Z,56.07
2018-07-23T11:02:23.557Z,53.54
2018-07-23T11:03:23.309Z,52.82
2018-07-23T11:04:23.447Z,54.1
2018-07-23T11:05:23.311Z,53.14
2018-07-23T11:06:23.319Z,51.28
2018-07-23T11:07:23.344Z,52.92
2018-07-23T11:08:23.640Z,52.36
2018-07-23T11:09:23.602Z,51.97
2018-07-23T11:10:23.604Z,51.5
2018-07-23T11:11:23.612Z,51.79
2018-07-23T11:12:23.619Z,51.79
2018-07-23T11:13:23.364Z,52.78
2018-07-23T11:14:23.363Z,51.5
2018-07-23T11:15:23.632Z,51.2
2018-07-23T11:16:23.376Z,51.5
2018-07-23T11:17:23.647Z,52.58
2018-07-23T11:18:23.651Z,50.63
2018-07-23T11:19:23.897Z,51.69
2018-07-23T11:20:23.399Z,51.59
2018-07-23T11:21:23.673Z,51.59
2018-07-23T11:22:23.675Z,52.68
2018-07-23T11:23:23.683Z,51.5
2018-07-23T11:24:23.689Z,51.52
2018-07-23T11:25:42.918Z,48.79
2018-07-23T11:26:23.827Z,50.26
2018-07-23T11:27:23.707Z,48.81
2018-07-23T11:28:23.723Z,49.69
2018-07-23T11:29:23.462Z,49.18
2018-07-23T11:30:23.465Z,48.96
2018-07-23T11:31:23.744Z,48.49
2018-07-23T11:32:23.740Z,50.73
2018-07-23T11:33:23.751Z,48.29
2018-07-23T11:34:23.761Z,50.19
2018-07-23T11:35:23.769Z,49.9
2018-07-23T11:36:23.775Z,51.18
2018-07-23T11:37:23.779Z,49.22
2018-07-23T11:38:23.788Z,50.71
2018-07-23T11:39:23.537Z,48.36
2018-07-23T11:40:23.797Z,48.36
2018-07-23T11:41:23.808Z,48.54
2018-07-23T11:42:23.817Z,48.74
2018-07-23T11:43:23.554Z,49.52
2018-07-23T11:44:23.562Z,49.82
2018-07-23T11:45:24.041Z,47.25
2018-07-23T11:46:27.656Z,46.66
2018-07-23T11:47:23.587Z,48.83
2018-07-23T11:48:23.918Z,48.83
2018-07-23T11:49:23.950Z,48.04
2018-07-23T11:50:23.937Z,48.34
2018-07-23T11:51:24.141Z,48.63
2018-07-23T11:52:23.745Z,47.43
2018-07-23T11:53:24.133Z,47.06
2018-07-23T11:54:24.008Z,46.94
2018-07-23T11:55:24.006Z,48.02
2018-07-23T11:56:23.992Z,48.41
2018-07-23T11:57:24.081Z,49.67
2018-07-23T11:58:24.063Z,49.2
2018-07-23T11:59:23.777Z,48.32
2018-07-23T12:00:24.139Z,48.24
2018-07-23T12:01:23.763Z,49.22
2018-07-23T12:02:23.996Z,49.92
2018-07-23T12:03:24.012Z,48.16
2018-07-23T12:04:24.151Z,47.2
2018-07-23T12:05:24.060Z,47.4
2018-07-23T12:06:24.034Z,47.22
2018-07-23T12:07:24.072Z,47.13
2018-07-23T12:08:24.301Z,48.11
2018-07-23T12:09:23.864Z,46.45
2018-07-23T12:10:24.069Z,44.8
2018-07-23T12:11:24.260Z,46.67
2018-07-23T12:12:24.039Z,46.73
2018-07-23T12:13:23.794Z,47.81
2018-07-23T12:14:24.060Z,47.62
2018-07-23T12:15:23.797Z,46.26
2018-07-23T12:16:23.809Z,46.85
2018-07-23T12:17:23.887Z,47.05
2018-07-23T12:18:23.821Z,47.05
2018-07-23T12:19:23.829Z,46.55
2018-07-23T12:20:24.100Z,46.48
2018-07-23T12:21:23.844Z,46.28
2018-07-23T12:22:23.851Z,47.37
2018-07-23T12:23:24.132Z,45.41
2018-07-23T12:24:24.138Z,45.63
2018-07-23T12:25:23.880Z,45.23
2018-07-23T12:26:23.886Z,44.15
2018-07-23T12:27:23.897Z,44.15
2018-07-23T12:28:23.907Z,46.23
2018-07-23T12:29:23.912Z,43.85
2018-07-23T12:30:24.189Z,46.72
2018-07-23T12:31:24.194Z,46.5
2018-07-23T12:32:24.458Z,44.05
2018-07-23T12:33:24.209Z,45.9
2018-07-23T12:34:23.963Z,44.72
2018-07-23T12:35:23.965Z,44.23
2018-07-23T12:36:24.231Z,43.35
2018-07-23T12:37:23.980Z,43.26
2018-07-23T12:38:23.993Z,44.15
2018-07-23T12:39:24.044Z,43.55
2018-07-23T12:40:24.010Z,44.05
2018-07-23T12:41:24.280Z,45.12
2018-07-23T12:42:24.292Z,44.97
2018-07-23T12:43:24.296Z,47.54
2018-07-23T12:44:24.305Z,46.04
2018-07-23T12:45:24.044Z,44.28
2018-07-23T12:46:24.056Z,45.27
2018-07-23T12:47:24.382Z,46.26
2018-07-23T12:48:24.075Z,44.58
2018-07-23T12:49:24.341Z,46.26
2018-07-23T12:50:24.354Z,44.28
2018-07-23T12:51:24.360Z,44.48
2018-07-23T12:52:24.368Z,45.07
2018-07-23T12:53:24.387Z,47.34
2018-07-23T12:54:24.391Z,44.48
2018-07-23T12:55:24.392Z,47.17